sensor_id;sensor_type;location;lat;lon;timestamp;pressure;altitude;pressure_sealevel;temperature;humidity
69219;BME280;56232;53.384;-2.732;2024-01-15T00:02:05;100734.83;;;4.35;34.19
69219;BME280;56232;53.384;-2.732;2024-01-15T00:04:31;100736.79;;;5.19;34.38
69219;BME280;56232;53.384;-2.732;2024-01-15T00:06:56;100738.85;;;4.35;34.49
69219;BME280;56232;53.384;-2.732;2024-01-15T00:09:26;100738.74;;;4.82;34.55
69219;BME280;56232;53.384;-2.732;2024-01-15T00:11:46;100740.79;;;4.11;34.73
69219;BME280;56232;53.384;-2.732;2024-01-15T00:14:12;100740.98;;;4.49;34.87
69219;BME280;56232;53.384;-2.732;2024-01-15T00:16:37;100742.73;;;4.26;35.07
69219;BME280;56232;53.384;-2.732;2024-01-15T00:19:03;100741.32;;;3.96;35.37
69219;BME280;56232;53.384;-2.732;2024-01-15T00:21:29;100741.61;;;3.66;35.60
69219;BME280;56232;53.384;-2.732;2024-01-15T00:23:54;100741.58;;;4.29;35.82
69219;BME280;56232;53.384;-2.732;2024-01-15T00:26:20;100737.58;;;3.34;36.18
69219;BME280;56232;53.384;-2.732;2024-01-15T00:28:46;100737.15;;;3.03;36.53
69219;BME280;56232;53.384;-2.732;2024-01-15T00:31:11;100740.59;;;3.23;36.47
69219;BME280;56232;53.384;-2.732;2024-01-15T00:33:36;100738.96;;;3.02;36.64
69219;BME280;56232;53.384;-2.732;2024-01-15T00:36:02;100738.71;;;2.82;36.94
69219;BME280;56232;53.384;-2.732;2024-01-15T00:38:27;100740.93;;;2.71;37.02
69219;BME280;56232;53.384;-2.732;2024-01-15T00:40:54;100741.14;;;2.53;36.99
69219;BME280;56232;53.384;-2.732;2024-01-15T00:43:18;100742.71;;;2.42;37.24
69219;BME280;56232;53.384;-2.732;2024-01-15T00:45:44;100740.94;;;2.28;37.14
69219;BME280;56232;53.384;-2.732;2024-01-15T00:48:10;100738.24;;;3.19;37.41
69219;BME280;56232;53.384;-2.732;2024-01-15T00:50:35;100738.48;;;2.44;37.47
69219;BME280;56232;53.384;-2.732;2024-01-15T00:53:00;100734.19;;;2.27;37.75
69219;BME280;56232;53.384;-2.732;2024-01-15T00:55:26;100735.54;;;2.57;37.90
69219;BME280;56232;53.384;-2.732;2024-01-15T00:57:51;100737.81;;;2.48;37.91
69219;BME280;56232;53.384;-2.732;2024-01-15T01:00:17;100734.74;;;2.39;37.98
69219;BME280;56232;53.384;-2.732;2024-01-15T01:02:41;100733.88;;;1.89;38.12
69219;BME280;56232;53.384;-2.732;2024-01-15T01:05:08;100733.42;;;2.35;38.02
69219;BME280;56232;53.384;-2.732;2024-01-15T01:07:32;100732.03;;;1.92;38.02
69219;BME280;56232;53.384;-2.732;2024-01-15T01:09:58;100730.04;;;1.77;37.96
69219;BME280;56232;53.384;-2.732;2024-01-15T01:12:23;100728.42;;;1.74;37.88
69219;BME280;56232;53.384;-2.732;2024-01-15T01:14:49;100729.14;;;2.19;37.86
69219;BME280;56232;53.384;-2.732;2024-01-15T01:17:14;100726.50;;;2.16;38.08
69219;BME280;56232;53.384;-2.732;2024-01-15T01:19:40;100727.29;;;2.05;37.96
69219;BME280;56232;53.384;-2.732;2024-01-15T01:22:05;100724.94;;;1.49;37.95
69219;BME280;56232;53.384;-2.732;2024-01-15T01:24:31;100727.56;;;1.92;37.97
69219;BME280;56232;53.384;-2.732;2024-01-15T01:26:56;100725.90;;;1.38;37.61
69219;BME280;56232;53.384;-2.732;2024-01-15T01:29:21;100723.97;;;1.85;37.73
69219;BME280;56232;53.384;-2.732;2024-01-15T01:31:46;100727.57;;;1.39;37.73
69219;BME280;56232;53.384;-2.732;2024-01-15T01:34:14;100723.24;;;1.87;37.62
69219;BME280;56232;53.384;-2.732;2024-01-15T01:36:37;100724.55;;;1.83;37.83
69219;BME280;56232;53.384;-2.732;2024-01-15T01:39:03;100725.16;;;1.81;37.64
69219;BME280;56232;53.384;-2.732;2024-01-15T01:41:28;100723.59;;;2.29;37.75
69219;BME280;56232;53.384;-2.732;2024-01-15T01:43:54;100720.14;;;1.70;37.75
69219;BME280;56232;53.384;-2.732;2024-01-15T01:46:19;100718.15;;;1.63;37.71
69219;BME280;56232;53.384;-2.732;2024-01-15T01:48:45;100717.20;;;1.57;37.66
69219;BME280;56232;53.384;-2.732;2024-01-15T01:51:11;100716.54;;;0.94;37.73
69219;BME280;56232;53.384;-2.732;2024-01-15T01:53:37;100716.46;;;1.87;37.61
69219;BME280;56232;53.384;-2.732;2024-01-15T01:56:01;100712.77;;;1.38;37.57
69219;BME280;56232;53.384;-2.732;2024-01-15T01:58:27;100707.67;;;1.37;37.64
69219;BME280;56232;53.384;-2.732;2024-01-15T02:00:52;100705.86;;;1.84;37.72
69219;BME280;56232;53.384;-2.732;2024-01-15T02:03:17;100704.29;;;1.33;37.75
69219;BME280;56232;53.384;-2.732;2024-01-15T02:05:43;100697.49;;;1.31;37.50
69219;BME280;56232;53.384;-2.732;2024-01-15T02:08:10;100695.37;;;1.75;37.58
69219;BME280;56232;53.384;-2.732;2024-01-15T02:10:33;100693.66;;;1.67;37.70
69219;BME280;56232;53.384;-2.732;2024-01-15T02:12:59;100695.66;;;1.11;37.68
69219;BME280;56232;53.384;-2.732;2024-01-15T02:15:24;100697.12;;;1.06;37.71
69219;BME280;56232;53.384;-2.732;2024-01-15T02:17:56;100697.69;;;1.43;37.79
69219;BME280;56232;53.384;-2.732;2024-01-15T02:20:15;100696.11;;;0.87;37.65
69219;BME280;56232;53.384;-2.732;2024-01-15T02:22:41;100698.05;;;2.00;37.53
69219;BME280;56232;53.384;-2.732;2024-01-15T02:25:06;100699.53;;;1.40;37.41
69219;BME280;56232;53.384;-2.732;2024-01-15T02:27:32;100701.99;;;1.44;36.96
69219;BME280;56232;53.384;-2.732;2024-01-15T02:29:57;100699.75;;;0.96;37.03
69219;BME280;56232;53.384;-2.732;2024-01-15T02:32:22;100698.93;;;0.97;36.99
69219;BME280;56232;53.384;-2.732;2024-01-15T02:34:48;100695.95;;;1.02;37.07
69219;BME280;56232;53.384;-2.732;2024-01-15T02:37:14;100690.58;;;1.05;36.87
69219;BME280;56232;53.384;-2.732;2024-01-15T02:39:38;100689.00;;;1.60;36.79
69219;BME280;56232;53.384;-2.732;2024-01-15T02:42:05;100687.63;;;1.14;36.82
69219;BME280;56232;53.384;-2.732;2024-01-15T02:44:29;100686.50;;;1.12;36.68
69219;BME280;56232;53.384;-2.732;2024-01-15T02:46:55;100682.74;;;1.20;36.60
69219;BME280;56232;53.384;-2.732;2024-01-15T02:49:20;100683.15;;;1.17;36.77
69219;BME280;56232;53.384;-2.732;2024-01-15T02:51:46;100679.20;;;0.74;36.79
69219;BME280;56232;53.384;-2.732;2024-01-15T02:54:11;100674.79;;;1.78;36.66
69219;BME280;56232;53.384;-2.732;2024-01-15T02:56:37;100673.60;;;1.33;36.58
69219;BME280;56232;53.384;-2.732;2024-01-15T02:59:02;100672.45;;;1.35;36.47
69219;BME280;56232;53.384;-2.732;2024-01-15T03:01:28;100671.40;;;1.42;36.45
69219;BME280;56232;53.384;-2.732;2024-01-15T03:03:53;100668.94;;;1.49;36.40
69219;BME280;56232;53.384;-2.732;2024-01-15T03:06:18;100665.21;;;1.55;36.39
69219;BME280;56232;53.384;-2.732;2024-01-15T03:08:43;100658.55;;;1.60;36.35
69219;BME280;56232;53.384;-2.732;2024-01-15T03:11:10;100659.60;;;1.58;36.33
69219;BME280;56232;53.384;-2.732;2024-01-15T03:13:35;100657.76;;;1.58;36.32
69219;BME280;56232;53.384;-2.732;2024-01-15T03:16:00;100659.78;;;1.08;36.29
69219;BME280;56232;53.384;-2.732;2024-01-15T03:18:25;100659.76;;;1.55;36.25
69219;BME280;56232;53.384;-2.732;2024-01-15T03:20:51;100658.38;;;2.00;36.25
69219;BME280;56232;53.384;-2.732;2024-01-15T03:23:16;100654.30;;;1.43;36.24
69219;BME280;56232;53.384;-2.732;2024-01-15T03:25:42;100658.77;;;1.38;36.28
69219;BME280;56232;53.384;-2.732;2024-01-15T03:28:07;100653.54;;;1.36;36.25
69219;BME280;56232;53.384;-2.732;2024-01-15T03:30:33;100654.51;;;1.93;36.30
69219;BME280;56232;53.384;-2.732;2024-01-15T03:32:58;100654.60;;;2.00;36.08
69219;BME280;56232;53.384;-2.732;2024-01-15T03:35:23;100650.05;;;1.57;36.06
69219;BME280;56232;53.384;-2.732;2024-01-15T03:37:48;100647.31;;;1.67;36.00
69219;BME280;56232;53.384;-2.732;2024-01-15T03:40:14;100652.52;;;1.20;35.91
69219;BME280;56232;53.384;-2.732;2024-01-15T03:42:39;100653.64;;;1.71;35.78
69219;BME280;56232;53.384;-2.732;2024-01-15T03:45:06;100651.15;;;2.18;35.80
69219;BME280;56232;53.384;-2.732;2024-01-15T03:47:30;100650.74;;;2.16;35.80
69219;BME280;56232;53.384;-2.732;2024-01-15T03:49:56;100648.32;;;1.63;35.82
69219;BME280;56232;53.384;-2.732;2024-01-15T03:52:21;100645.32;;;1.62;35.85
69219;BME280;56232;53.384;-2.732;2024-01-15T03:54:47;100647.02;;;1.68;35.79
69219;BME280;56232;53.384;-2.732;2024-01-15T03:57:12;100646.15;;;1.69;35.74
69219;BME280;56232;53.384;-2.732;2024-01-15T03:59:40;100648.28;;;1.71;35.76
69219;BME280;56232;53.384;-2.732;2024-01-15T04:02:04;100652.98;;;1.84;35.82
69219;BME280;56232;53.384;-2.732;2024-01-15T04:04:28;100651.93;;;2.11;35.73
69219;BME280;56232;53.384;-2.732;2024-01-15T04:06:54;100648.65;;;1.88;35.59
69219;BME280;56232;53.384;-2.732;2024-01-15T04:09:20;100650.84;;;2.64;35.31
69219;BME280;56232;53.384;-2.732;2024-01-15T04:11:45;100647.93;;;1.80;35.27
69219;BME280;56232;53.384;-2.732;2024-01-15T04:14:11;100645.21;;;2.66;34.90
69219;BME280;56232;53.384;-2.732;2024-01-15T04:16:37;100641.66;;;2.91;34.61
69219;BME280;56232;53.384;-2.732;2024-01-15T04:19:02;100641.84;;;2.48;34.17
69219;BME280;56232;53.384;-2.732;2024-01-15T04:21:27;100641.77;;;2.63;34.12
69219;BME280;56232;53.384;-2.732;2024-01-15T04:23:53;100634.97;;;2.74;33.93
69219;BME280;56232;53.384;-2.732;2024-01-15T04:26:18;100638.46;;;2.72;33.87
69219;BME280;56232;53.384;-2.732;2024-01-15T04:28:43;100641.64;;;3.27;34.03
69219;BME280;56232;53.384;-2.732;2024-01-15T04:33:35;100646.96;;;2.83;34.02
69219;BME280;56232;53.384;-2.732;2024-01-15T04:36:01;100646.88;;;2.81;34.14
69219;BME280;56232;53.384;-2.732;2024-01-15T04:38:25;100641.99;;;2.90;34.11
69219;BME280;56232;53.384;-2.732;2024-01-15T04:40:50;100640.78;;;3.05;34.01
69219;BME280;56232;53.384;-2.732;2024-01-15T04:43:16;100635.47;;;3.12;34.10
69219;BME280;56232;53.384;-2.732;2024-01-15T04:45:41;100636.52;;;3.21;34.05
69219;BME280;56232;53.384;-2.732;2024-01-15T04:48:06;100639.02;;;3.20;34.07
69219;BME280;56232;53.384;-2.732;2024-01-15T04:50:32;100640.70;;;3.21;34.15
69219;BME280;56232;53.384;-2.732;2024-01-15T04:52:58;100636.68;;;3.24;34.13
69219;BME280;56232;53.384;-2.732;2024-01-15T04:55:23;100641.17;;;3.10;33.92
69219;BME280;56232;53.384;-2.732;2024-01-15T04:57:49;100643.90;;;2.87;34.04
69219;BME280;56232;53.384;-2.732;2024-01-15T05:00:14;100645.27;;;2.63;34.15
69219;BME280;56232;53.384;-2.732;2024-01-15T05:02:40;100645.32;;;2.32;34.57
69219;BME280;56232;53.384;-2.732;2024-01-15T05:05:05;100648.14;;;2.75;34.71
69219;BME280;56232;53.384;-2.732;2024-01-15T05:07:31;100646.68;;;2.07;34.77
69219;BME280;56232;53.384;-2.732;2024-01-15T05:09:55;100644.10;;;3.22;34.86
69219;BME280;56232;53.384;-2.732;2024-01-15T05:12:21;100638.51;;;2.18;34.87
69219;BME280;56232;53.384;-2.732;2024-01-15T05:14:46;100636.44;;;3.10;34.89
69219;BME280;56232;53.384;-2.732;2024-01-15T05:17:12;100638.93;;;2.24;34.95
69219;BME280;56232;53.384;-2.732;2024-01-15T05:19:38;100635.74;;;2.14;35.19
69219;BME280;56232;53.384;-2.732;2024-01-15T05:22:03;100640.47;;;2.55;35.23
69219;BME280;56232;53.384;-2.732;2024-01-15T05:24:29;100643.63;;;2.53;35.43
69219;BME280;56232;53.384;-2.732;2024-01-15T05:26:55;100648.30;;;2.54;35.62
69219;BME280;56232;53.384;-2.732;2024-01-15T05:29:19;100651.00;;;1.90;35.59
69219;BME280;56232;53.384;-2.732;2024-01-15T05:31:45;100650.43;;;2.37;35.75
69219;BME280;56232;53.384;-2.732;2024-01-15T05:34:11;100648.92;;;1.79;35.78
69219;BME280;56232;53.384;-2.732;2024-01-15T05:36:36;100652.82;;;2.18;35.82
69219;BME280;56232;53.384;-2.732;2024-01-15T05:39:01;100650.65;;;2.11;35.73
69219;BME280;56232;53.384;-2.732;2024-01-15T05:41:27;100650.08;;;2.11;35.61
69219;BME280;56232;53.384;-2.732;2024-01-15T05:43:52;100656.98;;;2.54;35.65
69219;BME280;56232;53.384;-2.732;2024-01-15T05:46:17;100656.38;;;1.99;35.70
69219;BME280;56232;53.384;-2.732;2024-01-15T05:48:43;100657.28;;;1.91;35.86
69219;BME280;56232;53.384;-2.732;2024-01-15T05:51:10;100658.07;;;1.87;35.80
69219;BME280;56232;53.384;-2.732;2024-01-15T05:53:33;100654.29;;;1.85;35.75
69219;BME280;56232;53.384;-2.732;2024-01-15T05:55:59;100654.76;;;1.82;35.75
69219;BME280;56232;53.384;-2.732;2024-01-15T05:58:24;100656.12;;;1.87;35.77
69219;BME280;56232;53.384;-2.732;2024-01-15T06:00:50;100659.87;;;1.88;35.71
69219;BME280;56232;53.384;-2.732;2024-01-15T06:03:15;100662.57;;;1.35;35.71
69219;BME280;56232;53.384;-2.732;2024-01-15T06:05:41;100668.20;;;1.36;35.81
69219;BME280;56232;53.384;-2.732;2024-01-15T06:08:06;100671.64;;;2.00;35.77
69219;BME280;56232;53.384;-2.732;2024-01-15T06:10:32;100669.54;;;2.12;35.63
69219;BME280;56232;53.384;-2.732;2024-01-15T06:12:57;100671.32;;;2.03;35.51
69219;BME280;56232;53.384;-2.732;2024-01-15T06:15:22;100673.74;;;1.84;35.56
69219;BME280;56232;53.384;-2.732;2024-01-15T06:17:47;100681.14;;;1.74;35.59
69219;BME280;56232;53.384;-2.732;2024-01-15T06:20:13;100680.29;;;1.68;35.70
69219;BME280;56232;53.384;-2.732;2024-01-15T06:22:38;100680.54;;;1.62;35.67
69219;BME280;56232;53.384;-2.732;2024-01-15T06:25:05;100680.94;;;1.58;35.68
69219;BME280;56232;53.384;-2.732;2024-01-15T06:27:30;100682.28;;;1.56;35.66
69219;BME280;56232;53.384;-2.732;2024-01-15T06:29:55;100689.66;;;1.58;35.57
69219;BME280;56232;53.384;-2.732;2024-01-15T06:32:21;100685.61;;;1.58;35.55
69219;BME280;56232;53.384;-2.732;2024-01-15T06:34:46;100685.75;;;1.59;35.48
69219;BME280;56232;53.384;-2.732;2024-01-15T06:37:12;100683.66;;;2.04;35.43
69219;BME280;56232;53.384;-2.732;2024-01-15T06:39:37;100685.66;;;1.37;35.54
69219;BME280;56232;53.384;-2.732;2024-01-15T06:42:03;100687.43;;;1.24;35.60
69219;BME280;56232;53.384;-2.732;2024-01-15T06:44:28;100688.48;;;1.11;35.65
69219;BME280;56232;53.384;-2.732;2024-01-15T06:46:53;100695.51;;;0.91;35.75
69219;BME280;56232;53.384;-2.732;2024-01-15T06:49:19;100704.42;;;0.82;35.78
69219;BME280;56232;53.384;-2.732;2024-01-15T06:51:44;100703.46;;;1.25;35.82
69219;BME280;56232;53.384;-2.732;2024-01-15T06:54:11;100702.52;;;1.15;35.85
69219;BME280;56232;53.384;-2.732;2024-01-15T06:56:35;100707.70;;;1.08;35.90
69219;BME280;56232;53.384;-2.732;2024-01-15T06:59:01;100703.28;;;1.61;35.93
69219;BME280;56232;53.384;-2.732;2024-01-15T07:01:26;100708.19;;;0.41;35.95
69219;BME280;56232;53.384;-2.732;2024-01-15T07:03:52;100714.63;;;1.49;35.95
69219;BME280;56232;53.384;-2.732;2024-01-15T07:06:17;100713.14;;;0.34;35.92
69219;BME280;56232;53.384;-2.732;2024-01-15T07:08:43;100709.04;;;0.79;35.96
69219;BME280;56232;53.384;-2.732;2024-01-15T07:11:08;100709.87;;;0.27;35.97
69219;BME280;56232;53.384;-2.732;2024-01-15T07:13:33;100707.49;;;0.30;35.92
69219;BME280;56232;53.384;-2.732;2024-01-15T07:15:58;100706.96;;;1.36;35.89
69219;BME280;56232;53.384;-2.732;2024-01-15T07:18:24;100714.10;;;0.66;35.92
69219;BME280;56232;53.384;-2.732;2024-01-15T07:20:49;100716.65;;;0.51;35.99
69219;BME280;56232;53.384;-2.732;2024-01-15T07:23:15;100725.22;;;0.35;36.06
69219;BME280;56232;53.384;-2.732;2024-01-15T07:25:40;100736.25;;;0.21;36.17
69219;BME280;56232;53.384;-2.732;2024-01-15T07:28:06;100740.41;;;0.67;36.25
69219;BME280;56232;53.384;-2.732;2024-01-15T07:30:31;100742.54;;;0.55;36.32
69219;BME280;56232;53.384;-2.732;2024-01-15T07:32:57;100737.12;;;0.42;36.38
69219;BME280;56232;53.384;-2.732;2024-01-15T07:35:22;100742.00;;;0.82;36.41
69219;BME280;56232;53.384;-2.732;2024-01-15T07:37:48;100738.06;;;0.14;36.57
69219;BME280;56232;53.384;-2.732;2024-01-15T07:40:13;100746.31;;;0.53;36.51
69219;BME280;56232;53.384;-2.732;2024-01-15T07:42:39;100748.11;;;-0.03;36.55
69219;BME280;56232;53.384;-2.732;2024-01-15T07:45:04;100754.92;;;0.37;36.53
69219;BME280;56232;53.384;-2.732;2024-01-15T07:47:29;100756.98;;;0.94;36.52
69219;BME280;56232;53.384;-2.732;2024-01-15T07:49:54;100765.54;;;0.37;36.60
69219;BME280;56232;53.384;-2.732;2024-01-15T07:52:20;100772.41;;;-0.13;36.54
69219;BME280;56232;53.384;-2.732;2024-01-15T07:54:45;100776.02;;;-0.05;36.16
69219;BME280;56232;53.384;-2.732;2024-01-15T07:57:12;100781.56;;;-0.03;36.03
69219;BME280;56232;53.384;-2.732;2024-01-15T07:59:36;100790.22;;;0.07;35.97
69219;BME280;56232;53.384;-2.732;2024-01-15T08:02:02;100796.27;;;0.16;36.10
69219;BME280;56232;53.384;-2.732;2024-01-15T08:04:27;100800.81;;;0.24;35.85
69219;BME280;56232;53.384;-2.732;2024-01-15T08:06:53;100810.25;;;0.29;35.93
69219;BME280;56232;53.384;-2.732;2024-01-15T08:09:18;100818.49;;;-0.21;35.65
69219;BME280;56232;53.384;-2.732;2024-01-15T08:11:44;100816.74;;;0.50;35.63
69219;BME280;56232;53.384;-2.732;2024-01-15T08:14:11;100820.19;;;0.56;35.63
69219;BME280;56232;53.384;-2.732;2024-01-15T08:16:35;100824.22;;;0.64;35.54
69219;BME280;56232;53.384;-2.732;2024-01-15T08:19:00;100823.78;;;0.64;35.56
69219;BME280;56232;53.384;-2.732;2024-01-15T08:21:25;100825.93;;;0.62;35.54
69219;BME280;56232;53.384;-2.732;2024-01-15T08:23:51;100828.07;;;-0.06;35.47
69219;BME280;56232;53.384;-2.732;2024-01-15T08:26:16;100830.19;;;0.50;35.39
69219;BME280;56232;53.384;-2.732;2024-01-15T08:28:42;100840.15;;;1.01;35.34
69219;BME280;56232;53.384;-2.732;2024-01-15T08:31:07;100844.72;;;0.49;35.38
69219;BME280;56232;53.384;-2.732;2024-01-15T08:33:33;100847.03;;;-0.20;35.39
69219;BME280;56232;53.384;-2.732;2024-01-15T08:35:59;100852.53;;;0.39;35.42
69219;BME280;56232;53.384;-2.732;2024-01-15T08:38:24;100855.96;;;0.44;35.45
69219;BME280;56232;53.384;-2.732;2024-01-15T08:40:50;100857.67;;;0.48;35.42
69219;BME280;56232;53.384;-2.732;2024-01-15T08:43:15;100860.17;;;0.51;35.28
69219;BME280;56232;53.384;-2.732;2024-01-15T08:45:41;100865.41;;;-0.09;35.23
69219;BME280;56232;53.384;-2.732;2024-01-15T08:48:06;100867.73;;;0.48;35.17
69219;BME280;56232;53.384;-2.732;2024-01-15T08:50:32;100865.46;;;0.37;35.17
69219;BME280;56232;53.384;-2.732;2024-01-15T08:52:57;100863.49;;;0.38;35.08
69219;BME280;56232;53.384;-2.732;2024-01-15T08:55:23;100861.30;;;0.32;35.17
69219;BME280;56232;53.384;-2.732;2024-01-15T08:57:48;100864.16;;;0.40;34.99
69219;BME280;56232;53.384;-2.732;2024-01-15T09:00:14;100862.60;;;0.50;34.87
69219;BME280;56232;53.384;-2.732;2024-01-15T09:02:38;100859.59;;;0.44;34.94
69219;BME280;56232;53.384;-2.732;2024-01-15T09:05:04;100860.97;;;-0.13;34.84
69219;BME280;56232;53.384;-2.732;2024-01-15T09:07:29;100861.66;;;0.48;34.44
69219;BME280;56232;53.384;-2.732;2024-01-15T09:09:55;100861.37;;;0.56;34.66
69219;BME280;56232;53.384;-2.732;2024-01-15T09:12:20;100866.02;;;0.65;34.80
69219;BME280;56232;53.384;-2.732;2024-01-15T09:14:46;100863.37;;;0.69;34.54
69219;BME280;56232;53.384;-2.732;2024-01-15T09:17:12;100862.77;;;0.79;34.50
69219;BME280;56232;53.384;-2.732;2024-01-15T09:19:37;100862.82;;;0.83;34.35
69219;BME280;56232;53.384;-2.732;2024-01-15T09:22:02;100865.08;;;0.80;34.01
69219;BME280;56232;53.384;-2.732;2024-01-15T09:24:28;100870.66;;;1.02;33.98
69219;BME280;56232;53.384;-2.732;2024-01-15T09:26:53;100872.73;;;1.12;33.96
69219;BME280;56232;53.384;-2.732;2024-01-15T09:29:19;100872.61;;;0.55;34.03
69219;BME280;56232;53.384;-2.732;2024-01-15T09:31:44;100872.43;;;1.22;34.50
69219;BME280;56232;53.384;-2.732;2024-01-15T09:34:10;100872.94;;;1.27;34.32
69219;BME280;56232;53.384;-2.732;2024-01-15T09:36:39;100866.69;;;1.94;34.28
69219;BME280;56232;53.384;-2.732;2024-01-15T09:39:00;100862.22;;;1.86;34.38
69219;BME280;56232;53.384;-2.732;2024-01-15T09:41:26;100858.64;;;2.83;33.42
69219;BME280;56232;53.384;-2.732;2024-01-15T09:43:51;100853.58;;;3.56;32.53
69219;BME280;56232;53.384;-2.732;2024-01-15T09:46:17;100851.67;;;3.49;31.44
69219;BME280;56232;53.384;-2.732;2024-01-15T09:48:42;100850.81;;;4.06;31.63
69219;BME280;56232;53.384;-2.732;2024-01-15T09:51:08;100855.49;;;4.13;31.78
69219;BME280;56232;53.384;-2.732;2024-01-15T09:53:33;100862.93;;;3.34;32.00
69219;BME280;56232;53.384;-2.732;2024-01-15T09:55:58;100873.88;;;4.32;31.19
69219;BME280;56232;53.384;-2.732;2024-01-15T09:58:24;100876.76;;;4.04;31.11
69219;BME280;56232;53.384;-2.732;2024-01-15T10:00:50;100879.94;;;4.51;30.71
69219;BME280;56232;53.384;-2.732;2024-01-15T10:03:16;100878.22;;;3.82;31.09
69219;BME280;56232;53.384;-2.732;2024-01-15T10:05:41;100878.99;;;4.02;30.86
69219;BME280;56232;53.384;-2.732;2024-01-15T10:08:07;100880.77;;;4.20;30.56
69219;BME280;56232;53.384;-2.732;2024-01-15T10:10:33;100883.01;;;3.50;31.20
69219;BME280;56232;53.384;-2.732;2024-01-15T10:12:59;100883.07;;;3.82;31.92
69219;BME280;56232;53.384;-2.732;2024-01-15T10:15:26;100884.38;;;3.56;31.91
69219;BME280;56232;53.384;-2.732;2024-01-15T10:17:50;100890.63;;;3.06;31.42
69219;BME280;56232;53.384;-2.732;2024-01-15T10:20:16;100891.17;;;3.18;31.68
69219;BME280;56232;53.384;-2.732;2024-01-15T10:22:41;100894.78;;;3.45;32.23
69219;BME280;56232;53.384;-2.732;2024-01-15T10:25:10;100901.48;;;3.82;32.29
69219;BME280;56232;53.384;-2.732;2024-01-15T10:27:31;100898.97;;;2.92;32.71
69219;BME280;56232;53.384;-2.732;2024-01-15T10:29:59;100902.46;;;2.64;33.11
69219;BME280;56232;53.384;-2.732;2024-01-15T10:32:22;100903.90;;;2.48;32.89
69219;BME280;56232;53.384;-2.732;2024-01-15T10:34:48;100904.79;;;2.41;32.61
69219;BME280;56232;53.384;-2.732;2024-01-15T10:37:14;100908.98;;;2.24;32.93
69219;BME280;56232;53.384;-2.732;2024-01-15T10:39:39;100904.92;;;3.04;33.51
69219;BME280;56232;53.384;-2.732;2024-01-15T10:42:05;100906.26;;;3.09;33.89
69219;BME280;56232;53.384;-2.732;2024-01-15T10:44:31;100910.58;;;2.53;33.04
69219;BME280;56232;53.384;-2.732;2024-01-15T10:46:57;100913.45;;;2.16;32.50
69219;BME280;56232;53.384;-2.732;2024-01-15T10:49:22;100913.56;;;2.97;33.43
69219;BME280;56232;53.384;-2.732;2024-01-15T10:51:48;100909.60;;;2.59;32.86
69219;BME280;56232;53.384;-2.732;2024-01-15T10:54:13;100905.28;;;2.76;33.38
69219;BME280;56232;53.384;-2.732;2024-01-15T10:56:39;100908.04;;;4.03;32.80
69219;BME280;56232;53.384;-2.732;2024-01-15T10:59:04;100909.75;;;2.99;32.90
69219;BME280;56232;53.384;-2.732;2024-01-15T11:01:30;100912.63;;;3.00;32.82
69219;BME280;56232;53.384;-2.732;2024-01-15T11:03:55;100913.70;;;3.69;32.28
69219;BME280;56232;53.384;-2.732;2024-01-15T11:06:24;100912.30;;;3.31;32.45
69219;BME280;56232;53.384;-2.732;2024-01-15T11:08:48;100909.98;;;3.37;32.63
69219;BME280;56232;53.384;-2.732;2024-01-15T11:11:13;100911.44;;;3.36;32.58
69219;BME280;56232;53.384;-2.732;2024-01-15T11:13:41;100910.28;;;3.56;32.59
69219;BME280;56232;53.384;-2.732;2024-01-15T11:16:05;100909.23;;;3.56;32.77
69219;BME280;56232;53.384;-2.732;2024-01-15T11:18:30;100906.60;;;2.51;33.41
69219;BME280;56232;53.384;-2.732;2024-01-15T11:25:46;100897.57;;;2.90;33.23
69219;BME280;56232;53.384;-2.732;2024-01-15T11:30:38;100900.14;;;3.64;32.34
69219;BME280;56232;53.384;-2.732;2024-01-15T11:33:04;100898.23;;;3.77;32.80
69219;BME280;56232;53.384;-2.732;2024-01-15T11:37:58;100897.81;;;3.76;32.81
69219;BME280;56232;53.384;-2.732;2024-01-15T11:40:21;100896.28;;;3.74;33.11
69219;BME280;56232;53.384;-2.732;2024-01-15T11:42:46;100895.02;;;3.72;33.47
69219;BME280;56232;53.384;-2.732;2024-01-15T11:45:13;100893.62;;;3.63;34.12
69219;BME280;56232;53.384;-2.732;2024-01-15T11:50:04;100891.76;;;3.57;33.83
69219;BME280;56232;53.384;-2.732;2024-01-15T11:52:32;100889.02;;;3.59;33.22
69219;BME280;56232;53.384;-2.732;2024-01-15T11:55:00;100888.28;;;3.80;33.66
69219;BME280;56232;53.384;-2.732;2024-01-15T11:57:25;100881.21;;;3.87;34.04
69219;BME280;56232;53.384;-2.732;2024-01-15T11:59:47;100886.55;;;3.61;33.69
69219;BME280;56232;53.384;-2.732;2024-01-15T12:02:13;100889.31;;;3.63;33.76
69219;BME280;56232;53.384;-2.732;2024-01-15T12:04:38;100891.23;;;3.66;34.07
69219;BME280;56232;53.384;-2.732;2024-01-15T12:07:04;100892.46;;;3.88;33.13
69219;BME280;56232;53.384;-2.732;2024-01-15T12:09:30;100896.58;;;3.92;33.58
69219;BME280;56232;53.384;-2.732;2024-01-15T12:12:02;100893.40;;;4.01;34.07
69219;BME280;56232;53.384;-2.732;2024-01-15T12:14:22;100895.57;;;4.18;33.81
69219;BME280;56232;53.384;-2.732;2024-01-15T12:16:47;100898.60;;;4.35;33.79
69219;BME280;56232;53.384;-2.732;2024-01-15T12:19:14;100900.11;;;4.44;33.60
69219;BME280;56232;53.384;-2.732;2024-01-15T12:21:39;100896.30;;;4.58;33.51
69219;BME280;56232;53.384;-2.732;2024-01-15T12:24:07;100895.93;;;4.68;33.36
69219;BME280;56232;53.384;-2.732;2024-01-15T12:26:30;100898.43;;;4.30;33.49
69219;BME280;56232;53.384;-2.732;2024-01-15T12:28:56;100898.91;;;4.61;33.15
69219;BME280;56232;53.384;-2.732;2024-01-15T12:31:22;100896.72;;;3.72;34.32
69219;BME280;56232;53.384;-2.732;2024-01-15T12:33:48;100899.36;;;4.86;33.53
69219;BME280;56232;53.384;-2.732;2024-01-15T12:36:13;100902.21;;;4.92;33.02
69219;BME280;56232;53.384;-2.732;2024-01-15T12:38:39;100903.53;;;4.30;31.32
69219;BME280;56232;53.384;-2.732;2024-01-15T12:41:05;100901.48;;;4.58;31.95
69219;BME280;56232;53.384;-2.732;2024-01-15T12:43:31;100902.63;;;4.91;32.32
69219;BME280;56232;53.384;-2.732;2024-01-15T12:45:56;100905.47;;;4.89;32.46
69219;BME280;56232;53.384;-2.732;2024-01-15T12:48:22;100897.49;;;4.86;32.12
69219;BME280;56232;53.384;-2.732;2024-01-15T12:50:48;100896.95;;;4.81;32.90
69219;BME280;56232;53.384;-2.732;2024-01-15T12:53:14;100895.20;;;4.85;33.12
69219;BME280;56232;53.384;-2.732;2024-01-15T12:55:40;100895.50;;;5.47;32.61